Fordyce, Nebraska
Current Conditions -  °F | °C
As of 2:55 PM on Tuesday 21 Oct 2014 (Local Time) from KYKN Reporting Station
Clear Clear  
Wind Chill: 26°   Ceiling: Unl
Heat Index: 26°   Visibility: 10mi
Dew Point:   Wind: 17mph
Humidity: 30%   Direction: 180°S
Pressure: 29.96"   Gusts: 25mph
Location:  42.7°N, 97.36°W
Report Text: KYKN 211955Z AUTO 18015G22KT 10SM CLR 26/07 A2996 RMK AO1
Loading
Personal Weather Stations






























Interactive Weather Map
Tropical Storm Tracking
New forecast layout! Learn more

10-Day Weather Forecast

Advertisements
Track Severe Weather on mobile